Caronport, Canada
Current Conditions -  °F | °C
As of 8:00 PM on Wednesday 17 Dec 2014 (Local Time) from CYQR Reporting Station
Light Snow Light Snow  
Wind Chill:   Ceiling: 1200
Heat Index: 16°   Visibility: 12mi
Dew Point: 14°   Wind: 15mph
Humidity: 93%   Direction: 160°SSE
Pressure: 30.06"   Gusts: NA
Location:  50.46°N, 105.82°W
Report Text: CYQR 180200Z 16013KT 12SM -SN OVC012 M09/M10 A3006 RMK SC8 SLP220
Loading
Personal Weather Stations






























Interactive Weather Map New forecast layout! Learn more

10-Day Weather Forecast

Advertisements
Track Severe Weather on mobile